This is the latest recevied weather packets stored in our database for station/object K7AC-13. If no packets are shown the sender has not sent any weather packets the latest 10 day(s).
| Time | Temp. | Humidity | Pressure | Rain* | Wind** | Luminosity | Snow |
|---|---|---|---|---|---|---|---|
| 1777472154 | 17.22° C | 30% | 1016 hPa | 0 mm | - | - | - |
| 1777470351 | 15° C | 35% | 1015.7 hPa | 0 mm | - | - | - |
| 1777469459 | 13.89° C | 36% | 1015.7 hPa | 0 mm | - | - | - |
| 1777460451 | 15° C | 34% | 1015.3 hPa | 0 mm | - | - | - |
| 1777453259 | 17.22° C | 32% | 1015.3 hPa | 0 mm | - | - | - |
| 1777449657 | 18.33° C | 31% | 1015.2 hPa | 0 mm | - | - | - |
| 1777446052 | 21.11° C | 23% | 1015.6 hPa | 0 mm | - | - | - |
| 1777443344 | 23.33° C | 20% | 1015.2 hPa | 0 mm | - | - | - |
| 1777442445 | 23.33° C | 20% | 1015.1 hPa | 0 mm | - | - | - |
| 1777438849 | 24.44° C | 20% | 1014.8 hPa | 0 mm | - | - | - |
| 1777437954 | 24.44° C | 20% | 1014.9 hPa | 0 mm | - | - | - |
| 1777425348 | 27.78° C | 16% | 1013.5 hPa | 0 mm | - | - | - |
| 1777416348 | 29.44° C | 14% | 1013.9 hPa | 0 mm | - | - | - |
| 1777413645 | 29.44° C | 16% | 1014.5 hPa | 0 mm | - | - | - |
| 1777410951 | 28.89° C | 14% | 1015.2 hPa | 0 mm | - | - | - |
| 1777409153 | 28.33° C | 15% | 1015.5 hPa | 0 mm | - | - | - |
| 1777408257 | 28.33° C | 16% | 1015.6 hPa | 0 mm | - | - | - |
| 1777395655 | 25° C | 23% | 1017.5 hPa | 0 mm | - | - | - |
| 1777392048 | 22.22° C | 27% | 1017.4 hPa | 0 mm | - | - | - |
| 1777390252 | 21.67° C | 29% | 1017.5 hPa | 0 mm | - | - | - |
| 1777386646 | 17.22° C | 35% | 1017 hPa | 0 mm | - | - | - |
| 1777384872 | 13.89° C | 43% | 1017 hPa | 0 mm | - | - | - |
| 1777379452 | 11.67° C | 46% | 1015.8 hPa | 0 mm | - | - | - |
| 1777377648 | 12.22° C | 44% | 1015.5 hPa | 0 mm | - | - | - |
| 1777373155 | 12.78° C | 43% | 1015.1 hPa | 0 mm | - | - | - |
* Rain latest hour (hover to see other rain measurements)
** Current wind speed in m/s (hover to see current wind gust speed)